createdAt,value
2022-09-11T00:01:29.561Z,100.00
2022-09-11T00:06:34.347Z,100.00
2022-09-11T00:11:41.899Z,100.00
2022-09-11T00:16:49.246Z,100.00
2022-09-11T00:21:56.295Z,100.00
2022-09-11T00:27:01.361Z,100.00
2022-09-11T00:32:07.509Z,100.00
2022-09-11T00:37:12.568Z,100.00
2022-09-11T00:42:16.708Z,100.00
2022-09-11T00:47:22.170Z,100.00
2022-09-11T00:52:30.392Z,100.00
2022-09-11T00:57:41.575Z,100.00
2022-09-11T01:02:50.963Z,100.00
2022-09-11T01:07:57.989Z,100.00
2022-09-11T01:13:11.700Z,100.00
2022-09-11T01:18:27.292Z,100.00
2022-09-11T01:23:51.348Z,100.00
2022-09-11T01:29:03.455Z,100.00
2022-09-11T01:34:18.075Z,100.00
2022-09-11T01:39:26.906Z,100.00
2022-09-11T01:44:38.946Z,100.00
2022-09-11T01:49:51.697Z,100.00
2022-09-11T01:55:05.744Z,100.00
2022-09-11T02:00:13.889Z,100.00
2022-09-11T02:05:25.423Z,100.00
2022-09-11T02:10:38.299Z,100.00
2022-09-11T02:15:48.798Z,100.00
2022-09-11T02:20:56.118Z,100.00
2022-09-11T02:26:00.697Z,100.00
2022-09-11T02:31:08.616Z,100.00
2022-09-11T02:36:35.834Z,100.00
2022-09-11T02:41:53.458Z,100.00
2022-09-11T02:47:12.604Z,100.00
2022-09-11T02:52:30.331Z,100.00
2022-09-11T02:57:44.274Z,100.00
2022-09-11T03:02:51.436Z,100.00
2022-09-11T03:07:56.217Z,100.00
2022-09-11T03:13:00.630Z,100.00
2022-09-11T03:18:10.872Z,100.00
2022-09-11T03:23:15.569Z,100.00
2022-09-11T03:28:20.276Z,100.00
2022-09-11T03:33:28.400Z,100.00
2022-09-11T03:38:33.652Z,100.00
2022-09-11T03:43:39.356Z,100.00
2022-09-11T03:48:46.720Z,100.00
2022-09-11T03:53:51.422Z,100.00
2022-09-11T03:58:59.069Z,100.00
2022-09-11T04:04:06.451Z,100.00
2022-09-11T04:09:18.171Z,100.00
2022-09-11T04:14:25.224Z,100.00
2022-09-11T04:19:34.807Z,100.00
2022-09-11T04:24:39.332Z,100.00
2022-09-11T04:29:43.804Z,100.00
2022-09-11T04:34:50.128Z,100.00
2022-09-11T04:39:55.387Z,100.00
2022-09-11T04:44:59.900Z,100.00
2022-09-11T04:50:06.137Z,100.00
2022-09-11T04:55:11.837Z,100.00
2022-09-11T05:00:18.084Z,100.00
2022-09-11T05:05:25.696Z,100.00
2022-09-11T05:10:33.668Z,100.00
2022-09-11T05:15:38.087Z,100.00
2022-09-11T05:20:44.607Z,100.00
2022-09-11T05:25:49.937Z,100.00
2022-09-11T05:30:54.992Z,100.00
2022-09-11T05:36:06.900Z,100.00
2022-09-11T05:41:13.131Z,100.00
2022-09-11T05:46:19.844Z,100.00
2022-09-11T05:51:30.824Z,100.00
2022-09-11T05:56:37.363Z,100.00
2022-09-11T06:01:48.279Z,100.00
2022-09-11T06:07:00.859Z,100.00
2022-09-11T06:12:07.156Z,100.00
2022-09-11T06:17:12.496Z,100.00
2022-09-11T06:22:19.797Z,100.00
2022-09-11T06:27:25.388Z,100.00
2022-09-11T06:32:31.022Z,100.00
2022-09-11T06:37:38.104Z,100.00
2022-09-11T06:42:44.605Z,100.00
2022-09-11T06:47:51.924Z,100.00
2022-09-11T06:52:58.509Z,100.00
2022-09-11T06:58:06.970Z,100.00
2022-09-11T07:03:13.302Z,100.00
2022-09-11T07:08:24.733Z,100.00
2022-09-11T07:13:29.648Z,100.00
2022-09-11T07:18:36.573Z,100.00
2022-09-11T07:23:50.707Z,100.00
2022-09-11T07:28:57.881Z,100.00
2022-09-11T07:34:03.800Z,100.00
2022-09-11T07:39:12.169Z,100.00
2022-09-11T07:44:38.181Z,100.00
2022-09-11T07:49:42.664Z,100.00
2022-09-11T07:54:50.740Z,100.00
2022-09-11T07:59:56.896Z,100.00
2022-09-11T08:05:04.010Z,100.00
2022-09-11T08:10:26.726Z,100.00
2022-09-11T08:15:33.281Z,100.00
2022-09-11T08:20:39.297Z,100.00
2022-09-11T08:25:45.919Z,100.00
2022-09-11T08:30:52.262Z,100.00
2022-09-11T08:35:59.390Z,100.00
2022-09-11T08:41:15.388Z,100.00
2022-09-11T08:46:25.584Z,100.00
2022-09-11T08:51:32.326Z,100.00
2022-09-11T08:56:40.763Z,100.00
2022-09-11T09:01:55.522Z,100.00
2022-09-11T09:07:12.400Z,100.00
2022-09-11T09:12:28.484Z,100.00
2022-09-11T09:17:38.804Z,100.00
2022-09-11T09:22:49.536Z,100.00
2022-09-11T09:28:03.456Z,100.00
2022-09-11T09:33:25.715Z,100.00
2022-09-11T09:38:32.633Z,100.00
2022-09-11T09:43:50.825Z,100.00
2022-09-11T09:48:57.036Z,100.00
2022-09-11T09:54:03.595Z,100.00
2022-09-11T09:59:19.694Z,100.00
2022-09-11T10:04:27.275Z,100.00
2022-09-11T10:09:32.417Z,100.00
2022-09-11T10:14:52.905Z,100.00
2022-09-11T10:20:13.367Z,100.00
2022-09-11T10:25:20.227Z,100.00
2022-09-11T10:30:32.359Z,100.00
2022-09-11T10:35:38.222Z,100.00
2022-09-11T10:40:47.491Z,100.00
2022-09-11T10:46:06.729Z,100.00
2022-09-11T10:51:14.132Z,100.00
2022-09-11T10:56:19.551Z,100.00
2022-09-11T11:01:26.446Z,100.00
2022-09-11T11:06:49.512Z,100.00
2022-09-11T11:12:19.415Z,100.00
2022-09-11T11:17:34.138Z,100.00
2022-09-11T11:23:00.222Z,100.00
2022-09-11T11:28:23.930Z,100.00
2022-09-11T11:34:04.556Z,99.14
2022-09-11T11:39:19.254Z,94.73
2022-09-11T11:44:33.911Z,95.57
2022-09-11T11:49:53.679Z,97.56
2022-09-11T11:55:01.681Z,100.00
2022-09-11T12:00:12.830Z,100.00
2022-09-11T12:05:24.832Z,100.00
2022-09-11T12:10:31.738Z,100.00
2022-09-11T12:15:37.140Z,100.00
2022-09-11T12:20:45.254Z,97.98
2022-09-11T12:25:53.984Z,95.65
2022-09-11T12:31:02.531Z,96.70
2022-09-11T12:36:11.657Z,92.02
2022-09-11T12:41:17.739Z,88.94
2022-09-11T12:47:01.815Z,88.26
2022-09-11T12:52:20.514Z,90.48
2022-09-11T12:57:31.216Z,89.55
2022-09-11T13:02:39.535Z,94.03
2022-09-11T13:07:51.644Z,94.20
2022-09-11T13:12:57.604Z,91.32
2022-09-11T13:18:01.881Z,93.39
2022-09-11T13:23:19.500Z,93.41
2022-09-11T13:28:27.316Z,97.11
2022-09-11T13:33:33.968Z,98.55
2022-09-11T13:38:39.966Z,98.97
2022-09-11T13:43:47.774Z,98.15
2022-09-11T13:48:58.211Z,100.00
2022-09-11T13:54:11.567Z,100.00
2022-09-11T13:59:50.657Z,100.00
2022-09-11T14:05:02.515Z,92.97
2022-09-11T14:10:23.048Z,95.37
2022-09-11T14:15:38.423Z,97.32
2022-09-11T14:20:46.760Z,100.00
2022-09-11T14:26:20.142Z,100.00
2022-09-11T14:31:35.784Z,100.00
2022-09-11T14:36:44.681Z,100.00
2022-09-11T14:41:51.219Z,100.00
2022-09-11T14:46:57.863Z,100.00
2022-09-11T14:52:03.533Z,100.00
2022-09-11T14:57:18.389Z,100.00
2022-09-11T15:02:27.235Z,100.00
2022-09-11T15:07:31.944Z,100.00
2022-09-11T15:12:37.980Z,100.00
2022-09-11T15:17:42.716Z,100.00
2022-09-11T15:22:47.395Z,100.00
2022-09-11T15:27:54.674Z,100.00
2022-09-11T15:32:59.770Z,100.00
2022-09-11T15:38:05.945Z,100.00
2022-09-11T15:43:11.765Z,100.00
2022-09-11T15:48:17.584Z,100.00
2022-09-11T15:53:21.772Z,100.00
2022-09-11T15:58:28.001Z,100.00
2022-09-11T16:03:33.671Z,100.00
2022-09-11T16:08:40.036Z,100.00
2022-09-11T16:13:50.234Z,100.00
2022-09-11T16:18:55.318Z,100.00
2022-09-11T16:24:02.148Z,100.00
2022-09-11T16:29:12.362Z,100.00
2022-09-11T16:34:18.047Z,100.00
2022-09-11T16:39:22.174Z,100.00
2022-09-11T16:44:29.553Z,100.00
2022-09-11T16:49:50.373Z,100.00
2022-09-11T16:54:59.069Z,100.00
2022-09-11T17:00:07.847Z,100.00
2022-09-11T17:05:14.573Z,100.00
2022-09-11T17:10:19.202Z,100.00
2022-09-11T17:15:25.745Z,100.00
2022-09-11T17:20:30.060Z,100.00
2022-09-11T17:25:36.067Z,100.00
2022-09-11T17:30:41.769Z,100.00
2022-09-11T17:35:47.343Z,100.00
2022-09-11T17:40:57.681Z,100.00
2022-09-11T17:46:06.003Z,100.00
2022-09-11T17:51:12.571Z,100.00
2022-09-11T17:56:19.447Z,100.00
2022-09-11T18:01:26.903Z,100.00
2022-09-11T18:06:35.475Z,100.00
2022-09-11T18:11:40.191Z,100.00
2022-09-11T18:16:48.327Z,100.00
2022-09-11T18:21:53.599Z,100.00
2022-09-11T18:27:00.936Z,100.00
2022-09-11T18:32:09.872Z,100.00
2022-09-11T18:37:17.577Z,100.00
2022-09-11T18:42:22.446Z,100.00
2022-09-11T18:47:30.970Z,100.00
2022-09-11T18:52:36.867Z,100.00
2022-09-11T18:57:44.821Z,100.00
2022-09-11T19:02:57.403Z,100.00
2022-09-11T19:08:04.529Z,100.00
2022-09-11T19:13:08.892Z,100.00
2022-09-11T19:18:15.281Z,100.00
2022-09-11T19:23:19.398Z,100.00
2022-09-11T19:28:23.465Z,100.00
2022-09-11T19:33:31.254Z,100.00
2022-09-11T19:38:37.792Z,100.00
2022-09-11T19:43:45.794Z,100.00
2022-09-11T19:48:53.570Z,100.00
2022-09-11T19:54:00.717Z,100.00
2022-09-11T19:59:06.448Z,100.00
2022-09-11T20:04:14.134Z,100.00
2022-09-11T20:09:34.173Z,100.00
2022-09-11T20:14:42.660Z,100.00
2022-09-11T20:19:48.790Z,100.00
2022-09-11T20:24:53.330Z,100.00
2022-09-11T20:29:57.563Z,100.00
2022-09-11T20:35:03.766Z,100.00
2022-09-11T20:40:11.756Z,100.00
2022-09-11T20:45:17.025Z,100.00
2022-09-11T20:50:22.783Z,100.00
2022-09-11T20:55:27.646Z,100.00
2022-09-11T21:00:32.697Z,100.00
2022-09-11T21:05:38.991Z,100.00
2022-09-11T21:10:43.308Z,100.00
2022-09-11T21:15:49.399Z,100.00
2022-09-11T21:20:58.322Z,100.00
2022-09-11T21:26:03.782Z,100.00
2022-09-11T21:31:09.621Z,100.00
2022-09-11T21:36:16.076Z,100.00
2022-09-11T21:41:20.807Z,100.00
2022-09-11T21:46:26.122Z,100.00
2022-09-11T21:51:32.118Z,100.00
2022-09-11T21:56:36.430Z,100.00
2022-09-11T22:01:41.211Z,100.00
2022-09-11T22:06:47.782Z,100.00
2022-09-11T22:11:55.742Z,100.00
2022-09-11T22:17:04.025Z,100.00
2022-09-11T22:22:10.442Z,100.00
2022-09-11T22:27:14.769Z,100.00
2022-09-11T22:32:19.064Z,100.00
2022-09-11T22:37:24.979Z,100.00
2022-09-11T22:42:31.442Z,100.00
2022-09-11T22:47:36.661Z,100.00
2022-09-11T22:52:43.290Z,100.00
2022-09-11T22:57:47.583Z,100.00
2022-09-11T23:02:52.128Z,100.00
2022-09-11T23:07:57.930Z,100.00
2022-09-11T23:13:02.969Z,100.00
2022-09-11T23:18:07.607Z,100.00
2022-09-11T23:23:13.812Z,100.00
2022-09-11T23:28:18.119Z,100.00
2022-09-11T23:33:23.192Z,100.00
2022-09-11T23:38:29.332Z,100.00
2022-09-11T23:43:33.836Z,100.00
2022-09-11T23:48:38.534Z,100.00
2022-09-11T23:53:46.228Z,100.00
2022-09-11T23:58:50.976Z,100.00
